Terminal Aerodrome Forecast
Issued by NWS

Home | Current Version | Previous Version | Text Only | Print | Product List | Glossary On
Versions: 1 2 3 4 5 6 7 8 9 10 11 12 13 14 15 16 17 18 19 20 21 22 23 24 25 26 27 28 29 30 31 32 33 34 35 36 37 38 39 40 41 42
000
FTUS43 KMKX 221634 AAB
TAFUES
TAF AMD
KUES 221634Z 2217/2312 20012G21KT P6SM SCT030 BKN060
      TEMPO 2217/2219 BKN030
     FM221900 23013G20KT P6SM SCT030 BKN100
     FM222200 25011G23KT P6SM VCTS SCT040 BKN100CB
     FM230100 29009KT P6SM SCT040 BKN200
     FM230500 35010KT P6SM BKN250=

USA.gov is the U.S. government's official web portal to all federal, state and local government web resources and services.